sensor_id;sensor_type;location;lat;lon;timestamp;P1;durP1;ratioP1;P2;durP2;ratioP2
19127;SDS011;9696;53.686;10.094;2023-05-21T00:00:09;3.17;;;1.13;;
19127;SDS011;9696;53.686;10.094;2023-05-21T00:02:38;4.67;;;1.33;;
19127;SDS011;9696;53.686;10.094;2023-05-21T00:05:08;2.83;;;1.47;;
19127;SDS011;9696;53.686;10.094;2023-05-21T00:07:40;5.43;;;1.40;;
19127;SDS011;9696;53.686;10.094;2023-05-21T00:10:11;5.87;;;1.17;;
19127;SDS011;9696;53.686;10.094;2023-05-21T00:12:40;3.10;;;1.30;;
19127;SDS011;9696;53.686;10.094;2023-05-21T00:15:10;2.90;;;0.90;;
19127;SDS011;9696;53.686;10.094;2023-05-21T00:17:39;4.27;;;1.27;;
19127;SDS011;9696;53.686;10.094;2023-05-21T00:20:10;4.60;;;1.70;;
19127;SDS011;9696;53.686;10.094;2023-05-21T00:22:39;3.77;;;1.03;;
19127;SDS011;9696;53.686;10.094;2023-05-21T00:25:09;3.10;;;1.27;;
19127;SDS011;9696;53.686;10.094;2023-05-21T00:27:40;4.97;;;1.40;;
19127;SDS011;9696;53.686;10.094;2023-05-21T00:30:09;2.47;;;1.10;;
19127;SDS011;9696;53.686;10.094;2023-05-21T00:32:39;3.10;;;1.33;;
19127;SDS011;9696;53.686;10.094;2023-05-21T00:35:08;4.77;;;1.53;;
19127;SDS011;9696;53.686;10.094;2023-05-21T00:37:37;4.00;;;1.40;;
19127;SDS011;9696;53.686;10.094;2023-05-21T00:40:07;2.57;;;1.10;;
19127;SDS011;9696;53.686;10.094;2023-05-21T00:42:38;3.00;;;1.23;;
19127;SDS011;9696;53.686;10.094;2023-05-21T00:45:08;3.67;;;1.27;;
19127;SDS011;9696;53.686;10.094;2023-05-21T00:47:37;2.43;;;1.03;;
19127;SDS011;9696;53.686;10.094;2023-05-21T00:50:07;2.47;;;1.23;;
19127;SDS011;9696;53.686;10.094;2023-05-21T00:52:37;4.70;;;1.20;;
19127;SDS011;9696;53.686;10.094;2023-05-21T00:55:08;1.53;;;1.30;;
19127;SDS011;9696;53.686;10.094;2023-05-21T00:57:39;2.37;;;1.30;;
19127;SDS011;9696;53.686;10.094;2023-05-21T01:00:09;4.13;;;1.37;;
19127;SDS011;9696;53.686;10.094;2023-05-21T01:02:40;4.13;;;1.77;;
19127;SDS011;9696;53.686;10.094;2023-05-21T01:05:10;6.63;;;1.30;;
19127;SDS011;9696;53.686;10.094;2023-05-21T01:07:41;1.63;;;1.20;;
19127;SDS011;9696;53.686;10.094;2023-05-21T01:10:10;3.23;;;1.80;;
19127;SDS011;9696;53.686;10.094;2023-05-21T01:12:42;5.00;;;1.50;;
19127;SDS011;9696;53.686;10.094;2023-05-21T01:15:12;7.23;;;1.73;;
19127;SDS011;9696;53.686;10.094;2023-05-21T01:17:42;5.83;;;1.50;;
19127;SDS011;9696;53.686;10.094;2023-05-21T01:20:12;4.10;;;1.80;;
19127;SDS011;9696;53.686;10.094;2023-05-21T01:22:49;4.63;;;1.40;;
19127;SDS011;9696;53.686;10.094;2023-05-21T01:25:20;5.30;;;1.23;;
19127;SDS011;9696;53.686;10.094;2023-05-21T01:27:50;5.60;;;1.40;;
19127;SDS011;9696;53.686;10.094;2023-05-21T01:30:19;4.70;;;1.50;;
19127;SDS011;9696;53.686;10.094;2023-05-21T01:32:52;4.70;;;1.50;;
19127;SDS011;9696;53.686;10.094;2023-05-21T01:35:26;3.63;;;1.20;;
19127;SDS011;9696;53.686;10.094;2023-05-21T01:38:04;4.13;;;1.40;;
19127;SDS011;9696;53.686;10.094;2023-05-21T01:40:40;9.93;;;1.43;;
19127;SDS011;9696;53.686;10.094;2023-05-21T01:43:13;6.50;;;1.40;;
19127;SDS011;9696;53.686;10.094;2023-05-21T01:45:43;4.53;;;1.53;;
19127;SDS011;9696;53.686;10.094;2023-05-21T01:48:14;8.53;;;1.60;;
19127;SDS011;9696;53.686;10.094;2023-05-21T01:50:45;5.80;;;1.73;;
19127;SDS011;9696;53.686;10.094;2023-05-21T01:53:17;5.23;;;1.67;;
19127;SDS011;9696;53.686;10.094;2023-05-21T01:55:46;5.30;;;2.00;;
19127;SDS011;9696;53.686;10.094;2023-05-21T01:58:15;2.83;;;1.30;;
19127;SDS011;9696;53.686;10.094;2023-05-21T02:00:45;7.73;;;1.40;;
19127;SDS011;9696;53.686;10.094;2023-05-21T02:03:17;4.10;;;1.50;;
19127;SDS011;9696;53.686;10.094;2023-05-21T02:05:47;4.17;;;1.70;;
19127;SDS011;9696;53.686;10.094;2023-05-21T02:08:19;5.77;;;1.97;;
19127;SDS011;9696;53.686;10.094;2023-05-21T02:10:49;5.93;;;1.70;;
19127;SDS011;9696;53.686;10.094;2023-05-21T02:13:18;5.33;;;2.00;;
19127;SDS011;9696;53.686;10.094;2023-05-21T02:15:52;3.23;;;1.80;;
19127;SDS011;9696;53.686;10.094;2023-05-21T02:18:22;2.97;;;1.30;;
19127;SDS011;9696;53.686;10.094;2023-05-21T02:20:52;12.03;;;2.00;;
19127;SDS011;9696;53.686;10.094;2023-05-21T02:23:22;7.83;;;1.80;;
19127;SDS011;9696;53.686;10.094;2023-05-21T02:25:52;7.20;;;1.60;;
19127;SDS011;9696;53.686;10.094;2023-05-21T02:28:21;5.30;;;1.80;;
19127;SDS011;9696;53.686;10.094;2023-05-21T02:30:50;7.63;;;2.23;;
19127;SDS011;9696;53.686;10.094;2023-05-21T02:33:19;5.17;;;1.70;;
19127;SDS011;9696;53.686;10.094;2023-05-21T02:35:48;6.03;;;1.70;;
19127;SDS011;9696;53.686;10.094;2023-05-21T02:38:17;4.70;;;2.10;;
19127;SDS011;9696;53.686;10.094;2023-05-21T02:40:50;4.70;;;2.00;;
19127;SDS011;9696;53.686;10.094;2023-05-21T02:43:19;4.33;;;1.60;;
19127;SDS011;9696;53.686;10.094;2023-05-21T02:45:48;4.13;;;1.73;;
19127;SDS011;9696;53.686;10.094;2023-05-21T02:48:18;5.60;;;1.87;;
19127;SDS011;9696;53.686;10.094;2023-05-21T02:50:48;6.77;;;2.30;;
19127;SDS011;9696;53.686;10.094;2023-05-21T02:53:17;7.07;;;2.17;;
19127;SDS011;9696;53.686;10.094;2023-05-21T02:55:46;7.70;;;2.03;;
19127;SDS011;9696;53.686;10.094;2023-05-21T02:58:17;9.40;;;2.47;;
19127;SDS011;9696;53.686;10.094;2023-05-21T03:00:49;7.03;;;2.13;;
19127;SDS011;9696;53.686;10.094;2023-05-21T03:03:19;7.87;;;2.30;;
19127;SDS011;9696;53.686;10.094;2023-05-21T03:05:49;5.40;;;2.27;;
19127;SDS011;9696;53.686;10.094;2023-05-21T03:08:18;5.53;;;2.13;;
19127;SDS011;9696;53.686;10.094;2023-05-21T03:10:48;7.43;;;2.30;;
19127;SDS011;9696;53.686;10.094;2023-05-21T03:13:18;8.10;;;2.07;;
19127;SDS011;9696;53.686;10.094;2023-05-21T03:15:48;7.97;;;2.37;;
19127;SDS011;9696;53.686;10.094;2023-05-21T03:18:17;5.87;;;2.10;;
19127;SDS011;9696;53.686;10.094;2023-05-21T03:20:46;5.47;;;2.30;;
19127;SDS011;9696;53.686;10.094;2023-05-21T03:23:15;13.03;;;2.73;;
19127;SDS011;9696;53.686;10.094;2023-05-21T03:25:45;6.27;;;2.40;;
19127;SDS011;9696;53.686;10.094;2023-05-21T03:28:15;7.67;;;2.90;;
19127;SDS011;9696;53.686;10.094;2023-05-21T03:30:50;7.50;;;2.33;;
19127;SDS011;9696;53.686;10.094;2023-05-21T03:33:28;6.13;;;2.60;;
19127;SDS011;9696;53.686;10.094;2023-05-21T03:35:59;6.90;;;2.43;;
19127;SDS011;9696;53.686;10.094;2023-05-21T03:38:31;10.63;;;2.70;;
19127;SDS011;9696;53.686;10.094;2023-05-21T03:41:03;7.03;;;2.50;;
19127;SDS011;9696;53.686;10.094;2023-05-21T03:43:33;4.40;;;2.37;;
19127;SDS011;9696;53.686;10.094;2023-05-21T03:46:04;8.43;;;2.63;;
19127;SDS011;9696;53.686;10.094;2023-05-21T03:48:39;9.17;;;2.27;;
19127;SDS011;9696;53.686;10.094;2023-05-21T03:51:11;4.43;;;2.27;;
19127;SDS011;9696;53.686;10.094;2023-05-21T03:53:41;9.90;;;2.80;;
19127;SDS011;9696;53.686;10.094;2023-05-21T03:56:11;10.60;;;2.57;;
19127;SDS011;9696;53.686;10.094;2023-05-21T03:58:40;6.70;;;2.50;;
19127;SDS011;9696;53.686;10.094;2023-05-21T04:01:11;7.77;;;2.47;;
19127;SDS011;9696;53.686;10.094;2023-05-21T04:03:40;10.80;;;2.87;;
19127;SDS011;9696;53.686;10.094;2023-05-21T04:06:10;7.83;;;2.90;;
19127;SDS011;9696;53.686;10.094;2023-05-21T04:08:39;7.93;;;3.07;;
19127;SDS011;9696;53.686;10.094;2023-05-21T04:11:09;9.67;;;2.73;;
19127;SDS011;9696;53.686;10.094;2023-05-21T04:13:38;9.30;;;2.63;;
19127;SDS011;9696;53.686;10.094;2023-05-21T04:16:07;12.90;;;3.00;;
19127;SDS011;9696;53.686;10.094;2023-05-21T04:18:38;6.23;;;2.23;;
19127;SDS011;9696;53.686;10.094;2023-05-21T04:21:10;11.57;;;2.97;;
19127;SDS011;9696;53.686;10.094;2023-05-21T04:23:39;14.43;;;2.67;;
19127;SDS011;9696;53.686;10.094;2023-05-21T04:26:18;8.10;;;3.27;;
19127;SDS011;9696;53.686;10.094;2023-05-21T04:28:47;7.47;;;3.00;;
19127;SDS011;9696;53.686;10.094;2023-05-21T04:31:16;8.87;;;3.17;;
19127;SDS011;9696;53.686;10.094;2023-05-21T04:33:46;8.60;;;3.40;;
19127;SDS011;9696;53.686;10.094;2023-05-21T04:36:16;4.60;;;2.70;;
19127;SDS011;9696;53.686;10.094;2023-05-21T04:38:46;5.53;;;2.93;;
19127;SDS011;9696;53.686;10.094;2023-05-21T04:41:15;17.57;;;3.57;;
19127;SDS011;9696;53.686;10.094;2023-05-21T04:43:47;7.57;;;3.20;;
19127;SDS011;9696;53.686;10.094;2023-05-21T04:46:22;5.97;;;2.57;;
19127;SDS011;9696;53.686;10.094;2023-05-21T04:48:54;11.27;;;3.07;;
19127;SDS011;9696;53.686;10.094;2023-05-21T04:51:24;14.87;;;3.10;;
19127;SDS011;9696;53.686;10.094;2023-05-21T04:53:53;6.90;;;3.00;;
19127;SDS011;9696;53.686;10.094;2023-05-21T04:56:23;6.60;;;2.40;;
19127;SDS011;9696;53.686;10.094;2023-05-21T04:58:53;15.50;;;3.10;;
19127;SDS011;9696;53.686;10.094;2023-05-21T05:01:24;9.73;;;2.60;;
19127;SDS011;9696;53.686;10.094;2023-05-21T05:03:56;9.93;;;2.93;;
19127;SDS011;9696;53.686;10.094;2023-05-21T05:06:27;9.17;;;2.77;;
19127;SDS011;9696;53.686;10.094;2023-05-21T05:08:56;9.53;;;2.83;;
19127;SDS011;9696;53.686;10.094;2023-05-21T05:11:25;10.33;;;2.70;;
19127;SDS011;9696;53.686;10.094;2023-05-21T05:13:54;3.67;;;2.27;;
19127;SDS011;9696;53.686;10.094;2023-05-21T05:16:24;13.10;;;2.73;;
19127;SDS011;9696;53.686;10.094;2023-05-21T05:18:56;7.00;;;2.67;;
19127;SDS011;9696;53.686;10.094;2023-05-21T05:21:26;8.50;;;2.53;;
19127;SDS011;9696;53.686;10.094;2023-05-21T05:23:55;8.68;;;2.70;;
19127;SDS011;9696;53.686;10.094;2023-05-21T05:26:27;7.27;;;2.27;;
19127;SDS011;9696;53.686;10.094;2023-05-21T05:28:56;17.60;;;2.40;;
19127;SDS011;9696;53.686;10.094;2023-05-21T05:31:25;7.97;;;2.63;;
19127;SDS011;9696;53.686;10.094;2023-05-21T05:33:54;15.00;;;2.67;;
19127;SDS011;9696;53.686;10.094;2023-05-21T05:36:25;7.27;;;2.83;;
19127;SDS011;9696;53.686;10.094;2023-05-21T05:38:54;10.35;;;2.80;;
19127;SDS011;9696;53.686;10.094;2023-05-21T05:41:23;6.43;;;2.27;;
19127;SDS011;9696;53.686;10.094;2023-05-21T05:43:54;7.53;;;2.60;;
19127;SDS011;9696;53.686;10.094;2023-05-21T05:46:25;9.27;;;3.40;;
19127;SDS011;9696;53.686;10.094;2023-05-21T05:48:57;4.43;;;2.30;;
19127;SDS011;9696;53.686;10.094;2023-05-21T05:51:27;11.33;;;2.87;;
19127;SDS011;9696;53.686;10.094;2023-05-21T05:53:56;9.53;;;2.60;;
19127;SDS011;9696;53.686;10.094;2023-05-21T05:56:26;8.65;;;2.42;;
19127;SDS011;9696;53.686;10.094;2023-05-21T05:58:55;9.48;;;2.70;;
19127;SDS011;9696;53.686;10.094;2023-05-21T06:01:25;8.60;;;2.47;;
19127;SDS011;9696;53.686;10.094;2023-05-21T06:03:55;9.00;;;2.70;;
19127;SDS011;9696;53.686;10.094;2023-05-21T06:06:25;7.20;;;2.28;;
19127;SDS011;9696;53.686;10.094;2023-05-21T06:08:54;10.05;;;3.10;;
19127;SDS011;9696;53.686;10.094;2023-05-21T06:11:24;8.63;;;3.10;;
19127;SDS011;9696;53.686;10.094;2023-05-21T06:13:53;4.72;;;2.63;;
19127;SDS011;9696;53.686;10.094;2023-05-21T06:16:22;8.38;;;2.70;;
19127;SDS011;9696;53.686;10.094;2023-05-21T06:18:52;6.72;;;2.78;;
19127;SDS011;9696;53.686;10.094;2023-05-21T06:21:22;8.82;;;2.53;;
19127;SDS011;9696;53.686;10.094;2023-05-21T06:23:52;7.20;;;3.20;;
19127;SDS011;9696;53.686;10.094;2023-05-21T06:26:21;11.27;;;3.15;;
19127;SDS011;9696;53.686;10.094;2023-05-21T06:28:51;4.88;;;2.38;;
19127;SDS011;9696;53.686;10.094;2023-05-21T06:31:20;7.00;;;2.53;;
19127;SDS011;9696;53.686;10.094;2023-05-21T06:33:50;8.68;;;2.67;;
19127;SDS011;9696;53.686;10.094;2023-05-21T06:36:20;6.40;;;2.88;;
19127;SDS011;9696;53.686;10.094;2023-05-21T06:38:51;3.92;;;2.55;;
19127;SDS011;9696;53.686;10.094;2023-05-21T06:41:21;12.32;;;2.50;;
19127;SDS011;9696;53.686;10.094;2023-05-21T06:43:54;8.60;;;2.67;;
19127;SDS011;9696;53.686;10.094;2023-05-21T06:46:38;9.77;;;3.00;;
19127;SDS011;9696;53.686;10.094;2023-05-21T06:49:08;5.38;;;2.78;;
19127;SDS011;9696;53.686;10.094;2023-05-21T06:51:41;5.93;;;2.83;;
19127;SDS011;9696;53.686;10.094;2023-05-21T06:54:12;7.65;;;2.92;;
19127;SDS011;9696;53.686;10.094;2023-05-21T06:56:41;4.93;;;3.08;;
19127;SDS011;9696;53.686;10.094;2023-05-21T06:59:10;13.85;;;3.42;;
19127;SDS011;9696;53.686;10.094;2023-05-21T07:01:40;8.02;;;3.47;;
19127;SDS011;9696;53.686;10.094;2023-05-21T07:04:10;10.27;;;3.33;;
19127;SDS011;9696;53.686;10.094;2023-05-21T07:06:42;6.32;;;2.90;;
19127;SDS011;9696;53.686;10.094;2023-05-21T07:09:11;7.45;;;3.47;;
19127;SDS011;9696;53.686;10.094;2023-05-21T07:11:41;7.15;;;3.20;;
19127;SDS011;9696;53.686;10.094;2023-05-21T07:14:12;6.38;;;3.35;;
19127;SDS011;9696;53.686;10.094;2023-05-21T07:16:41;9.68;;;3.28;;
19127;SDS011;9696;53.686;10.094;2023-05-21T07:19:10;8.13;;;3.67;;
19127;SDS011;9696;53.686;10.094;2023-05-21T07:21:39;10.20;;;3.90;;
19127;SDS011;9696;53.686;10.094;2023-05-21T07:24:10;8.02;;;3.30;;
19127;SDS011;9696;53.686;10.094;2023-05-21T07:26:39;7.45;;;3.85;;
19127;SDS011;9696;53.686;10.094;2023-05-21T07:29:10;7.30;;;3.90;;
19127;SDS011;9696;53.686;10.094;2023-05-21T07:31:39;6.53;;;3.40;;
19127;SDS011;9696;53.686;10.094;2023-05-21T07:34:09;8.27;;;3.80;;
19127;SDS011;9696;53.686;10.094;2023-05-21T07:36:40;9.77;;;3.60;;
19127;SDS011;9696;53.686;10.094;2023-05-21T07:39:11;8.68;;;4.20;;
19127;SDS011;9696;53.686;10.094;2023-05-21T07:41:41;9.40;;;4.60;;
19127;SDS011;9696;53.686;10.094;2023-05-21T07:44:11;5.95;;;3.63;;
19127;SDS011;9696;53.686;10.094;2023-05-21T07:46:42;6.75;;;3.85;;
19127;SDS011;9696;53.686;10.094;2023-05-21T07:49:11;9.50;;;4.45;;
19127;SDS011;9696;53.686;10.094;2023-05-21T07:51:44;5.75;;;3.83;;
19127;SDS011;9696;53.686;10.094;2023-05-21T07:54:15;8.63;;;4.05;;
19127;SDS011;9696;53.686;10.094;2023-05-21T07:56:45;9.88;;;3.85;;
19127;SDS011;9696;53.686;10.094;2023-05-21T07:59:34;12.45;;;4.18;;
19127;SDS011;9696;53.686;10.094;2023-05-21T08:02:04;11.52;;;4.90;;
19127;SDS011;9696;53.686;10.094;2023-05-21T08:04:34;8.77;;;4.30;;
19127;SDS011;9696;53.686;10.094;2023-05-21T08:07:07;16.70;;;4.25;;
19127;SDS011;9696;53.686;10.094;2023-05-21T08:09:37;7.53;;;3.85;;
19127;SDS011;9696;53.686;10.094;2023-05-21T08:12:09;7.85;;;4.03;;
19127;SDS011;9696;53.686;10.094;2023-05-21T08:14:41;6.43;;;3.67;;
19127;SDS011;9696;53.686;10.094;2023-05-21T08:17:12;6.85;;;4.20;;
19127;SDS011;9696;53.686;10.094;2023-05-21T08:19:41;8.13;;;3.90;;
19127;SDS011;9696;53.686;10.094;2023-05-21T08:22:10;7.25;;;4.10;;
19127;SDS011;9696;53.686;10.094;2023-05-21T08:24:44;7.13;;;4.10;;
19127;SDS011;9696;53.686;10.094;2023-05-21T08:27:14;13.50;;;3.67;;
19127;SDS011;9696;53.686;10.094;2023-05-21T08:29:43;13.52;;;4.45;;
19127;SDS011;9696;53.686;10.094;2023-05-21T08:32:12;7.85;;;4.00;;
19127;SDS011;9696;53.686;10.094;2023-05-21T08:34:42;5.78;;;3.75;;
19127;SDS011;9696;53.686;10.094;2023-05-21T08:37:25;8.23;;;4.30;;
19127;SDS011;9696;53.686;10.094;2023-05-21T08:40:03;12.27;;;4.68;;
19127;SDS011;9696;53.686;10.094;2023-05-21T08:42:38;8.35;;;4.90;;
19127;SDS011;9696;53.686;10.094;2023-05-21T08:45:19;9.07;;;4.47;;
19127;SDS011;9696;53.686;10.094;2023-05-21T08:47:52;7.85;;;4.47;;
19127;SDS011;9696;53.686;10.094;2023-05-21T08:50:26;9.55;;;4.18;;
19127;SDS011;9696;53.686;10.094;2023-05-21T08:52:59;8.10;;;4.20;;
19127;SDS011;9696;53.686;10.094;2023-05-21T08:55:42;8.95;;;4.35;;
19127;SDS011;9696;53.686;10.094;2023-05-21T08:58:12;10.48;;;4.38;;
19127;SDS011;9696;53.686;10.094;2023-05-21T09:00:43;9.73;;;3.97;;
19127;SDS011;9696;53.686;10.094;2023-05-21T09:03:12;8.88;;;4.45;;
19127;SDS011;9696;53.686;10.094;2023-05-21T09:05:43;9.35;;;4.32;;
19127;SDS011;9696;53.686;10.094;2023-05-21T09:08:15;11.35;;;4.45;;
19127;SDS011;9696;53.686;10.094;2023-05-21T09:10:59;10.18;;;4.53;;
19127;SDS011;9696;53.686;10.094;2023-05-21T09:13:38;8.05;;;4.82;;
19127;SDS011;9696;53.686;10.094;2023-05-21T09:16:14;10.85;;;4.53;;
19127;SDS011;9696;53.686;10.094;2023-05-21T09:18:44;9.98;;;4.82;;
19127;SDS011;9696;53.686;10.094;2023-05-21T09:21:23;12.10;;;5.07;;
19127;SDS011;9696;53.686;10.094;2023-05-21T09:23:57;11.60;;;4.30;;
19127;SDS011;9696;53.686;10.094;2023-05-21T09:26:30;11.70;;;4.43;;
19127;SDS011;9696;53.686;10.094;2023-05-21T09:29:03;8.45;;;4.50;;
19127;SDS011;9696;53.686;10.094;2023-05-21T09:31:32;10.75;;;4.70;;
19127;SDS011;9696;53.686;10.094;2023-05-21T09:34:02;7.22;;;4.80;;
19127;SDS011;9696;53.686;10.094;2023-05-21T09:36:32;17.95;;;5.05;;
19127;SDS011;9696;53.686;10.094;2023-05-21T09:39:05;7.68;;;4.30;;
19127;SDS011;9696;53.686;10.094;2023-05-21T09:41:36;8.18;;;4.85;;
19127;SDS011;9696;53.686;10.094;2023-05-21T09:44:09;11.80;;;4.68;;
19127;SDS011;9696;53.686;10.094;2023-05-21T09:46:39;11.63;;;4.90;;
19127;SDS011;9696;53.686;10.094;2023-05-21T09:49:20;11.73;;;5.40;;
19127;SDS011;9696;53.686;10.094;2023-05-21T09:51:55;9.02;;;5.28;;
19127;SDS011;9696;53.686;10.094;2023-05-21T09:54:29;11.93;;;4.90;;
19127;SDS011;9696;53.686;10.094;2023-05-21T09:57:00;10.77;;;5.95;;
19127;SDS011;9696;53.686;10.094;2023-05-21T09:59:36;11.05;;;5.75;;
19127;SDS011;9696;53.686;10.094;2023-05-21T10:02:14;11.35;;;5.53;;
19127;SDS011;9696;53.686;10.094;2023-05-21T10:04:46;10.20;;;4.70;;
19127;SDS011;9696;53.686;10.094;2023-05-21T10:07:17;10.02;;;5.70;;
19127;SDS011;9696;53.686;10.094;2023-05-21T10:09:52;9.27;;;4.55;;
19127;SDS011;9696;53.686;10.094;2023-05-21T10:12:24;9.38;;;4.78;;
19127;SDS011;9696;53.686;10.094;2023-05-21T10:14:58;10.20;;;5.05;;
19127;SDS011;9696;53.686;10.094;2023-05-21T10:17:30;11.18;;;4.57;;
19127;SDS011;9696;53.686;10.094;2023-05-21T10:19:59;14.60;;;4.75;;
19127;SDS011;9696;53.686;10.094;2023-05-21T10:22:30;10.45;;;4.40;;
19127;SDS011;9696;53.686;10.094;2023-05-21T10:25:01;14.40;;;4.57;;
19127;SDS011;9696;53.686;10.094;2023-05-21T10:27:32;13.00;;;4.20;;
19127;SDS011;9696;53.686;10.094;2023-05-21T10:30:03;8.60;;;4.50;;
19127;SDS011;9696;53.686;10.094;2023-05-21T10:32:33;6.65;;;3.95;;
19127;SDS011;9696;53.686;10.094;2023-05-21T10:35:03;11.25;;;4.45;;
19127;SDS011;9696;53.686;10.094;2023-05-21T10:37:34;6.65;;;3.78;;
19127;SDS011;9696;53.686;10.094;2023-05-21T10:40:03;8.43;;;4.03;;
19127;SDS011;9696;53.686;10.094;2023-05-21T10:42:47;8.32;;;4.22;;
19127;SDS011;9696;53.686;10.094;2023-05-21T10:45:31;7.13;;;4.07;;
19127;SDS011;9696;53.686;10.094;2023-05-21T10:48:22;8.45;;;4.40;;
19127;SDS011;9696;53.686;10.094;2023-05-21T10:51:09;5.78;;;4.07;;
19127;SDS011;9696;53.686;10.094;2023-05-21T10:53:52;9.48;;;4.20;;
19127;SDS011;9696;53.686;10.094;2023-05-21T10:56:45;16.33;;;4.88;;
19127;SDS011;9696;53.686;10.094;2023-05-21T10:59:32;7.05;;;4.55;;
19127;SDS011;9696;53.686;10.094;2023-05-21T11:02:07;11.45;;;4.53;;
19127;SDS011;9696;53.686;10.094;2023-05-21T11:04:39;6.38;;;4.07;;
19127;SDS011;9696;53.686;10.094;2023-05-21T11:07:11;10.10;;;4.45;;
19127;SDS011;9696;53.686;10.094;2023-05-21T11:09:40;10.45;;;5.28;;
19127;SDS011;9696;53.686;10.094;2023-05-21T11:12:09;8.95;;;4.43;;
19127;SDS011;9696;53.686;10.094;2023-05-21T11:14:45;15.95;;;4.45;;
19127;SDS011;9696;53.686;10.094;2023-05-21T11:17:36;10.52;;;5.20;;
19127;SDS011;9696;53.686;10.094;2023-05-21T11:20:06;8.93;;;4.22;;
19127;SDS011;9696;53.686;10.094;2023-05-21T11:22:37;7.10;;;4.43;;
19127;SDS011;9696;53.686;10.094;2023-05-21T11:25:06;10.75;;;4.00;;
19127;SDS011;9696;53.686;10.094;2023-05-21T11:27:38;7.47;;;4.00;;
19127;SDS011;9696;53.686;10.094;2023-05-21T11:30:13;8.52;;;4.28;;
19127;SDS011;9696;53.686;10.094;2023-05-21T11:35:56;11.75;;;4.75;;
19127;SDS011;9696;53.686;10.094;2023-05-21T11:38:26;10.63;;;4.68;;
19127;SDS011;9696;53.686;10.094;2023-05-21T11:41:00;11.73;;;3.90;;
19127;SDS011;9696;53.686;10.094;2023-05-21T11:43:30;10.43;;;4.47;;
19127;SDS011;9696;53.686;10.094;2023-05-21T11:46:00;8.85;;;4.30;;
19127;SDS011;9696;53.686;10.094;2023-05-21T11:48:30;8.90;;;4.90;;
19127;SDS011;9696;53.686;10.094;2023-05-21T11:50:59;7.82;;;4.43;;
19127;SDS011;9696;53.686;10.094;2023-05-21T11:53:29;8.20;;;4.43;;
19127;SDS011;9696;53.686;10.094;2023-05-21T11:55:58;13.25;;;4.68;;
19127;SDS011;9696;53.686;10.094;2023-05-21T11:58:30;8.90;;;4.68;;
19127;SDS011;9696;53.686;10.094;2023-05-21T12:01:00;10.05;;;4.38;;
19127;SDS011;9696;53.686;10.094;2023-05-21T12:03:33;11.27;;;4.40;;
19127;SDS011;9696;53.686;10.094;2023-05-21T12:06:03;11.98;;;5.50;;
19127;SDS011;9696;53.686;10.094;2023-05-21T12:08:34;11.23;;;5.00;;
19127;SDS011;9696;53.686;10.094;2023-05-21T12:11:04;7.70;;;5.07;;
19127;SDS011;9696;53.686;10.094;2023-05-21T12:13:33;7.75;;;4.72;;
19127;SDS011;9696;53.686;10.094;2023-05-21T12:16:04;9.55;;;4.80;;
19127;SDS011;9696;53.686;10.094;2023-05-21T12:18:35;11.75;;;4.72;;
19127;SDS011;9696;53.686;10.094;2023-05-21T12:21:05;6.50;;;4.47;;
19127;SDS011;9696;53.686;10.094;2023-05-21T12:23:38;10.07;;;5.28;;
19127;SDS011;9696;53.686;10.094;2023-05-21T12:26:07;9.35;;;4.38;;
19127;SDS011;9696;53.686;10.094;2023-05-21T12:28:36;13.90;;;4.93;;
19127;SDS011;9696;53.686;10.094;2023-05-21T12:31:07;12.23;;;5.38;;
19127;SDS011;9696;53.686;10.094;2023-05-21T12:33:43;9.50;;;5.05;;
19127;SDS011;9696;53.686;10.094;2023-05-21T12:36:19;10.68;;;4.95;;
19127;SDS011;9696;53.686;10.094;2023-05-21T12:38:50;7.05;;;4.25;;
19127;SDS011;9696;53.686;10.094;2023-05-21T12:41:19;8.90;;;4.70;;
19127;SDS011;9696;53.686;10.094;2023-05-21T12:43:49;10.88;;;4.95;;
19127;SDS011;9696;53.686;10.094;2023-05-21T12:46:20;8.73;;;5.00;;
19127;SDS011;9696;53.686;10.094;2023-05-21T12:48:51;6.65;;;4.32;;
19127;SDS011;9696;53.686;10.094;2023-05-21T12:51:21;10.18;;;5.13;;
19127;SDS011;9696;53.686;10.094;2023-05-21T12:53:50;8.82;;;4.72;;
19127;SDS011;9696;53.686;10.094;2023-05-21T12:56:19;7.85;;;4.45;;
19127;SDS011;9696;53.686;10.094;2023-05-21T12:58:48;7.50;;;4.50;;
19127;SDS011;9696;53.686;10.094;2023-05-21T13:01:20;10.60;;;4.93;;
19127;SDS011;9696;53.686;10.094;2023-05-21T13:03:52;9.60;;;4.60;;
19127;SDS011;9696;53.686;10.094;2023-05-21T13:06:21;11.05;;;4.90;;
19127;SDS011;9696;53.686;10.094;2023-05-21T13:08:52;13.38;;;4.80;;
19127;SDS011;9696;53.686;10.094;2023-05-21T13:11:21;9.93;;;4.50;;
19127;SDS011;9696;53.686;10.094;2023-05-21T13:13:50;17.42;;;4.78;;
19127;SDS011;9696;53.686;10.094;2023-05-21T13:16:19;9.95;;;4.75;;
19127;SDS011;9696;53.686;10.094;2023-05-21T13:18:51;15.80;;;5.07;;
19127;SDS011;9696;53.686;10.094;2023-05-21T13:21:20;11.00;;;4.47;;
19127;SDS011;9696;53.686;10.094;2023-05-21T13:23:49;9.20;;;4.45;;
19127;SDS011;9696;53.686;10.094;2023-05-21T13:26:18;9.00;;;4.25;;
19127;SDS011;9696;53.686;10.094;2023-05-21T13:28:47;7.82;;;4.72;;
19127;SDS011;9696;53.686;10.094;2023-05-21T13:31:16;9.68;;;4.32;;
19127;SDS011;9696;53.686;10.094;2023-05-21T13:33:45;8.02;;;4.40;;
19127;SDS011;9696;53.686;10.094;2023-05-21T13:36:16;8.77;;;4.57;;
19127;SDS011;9696;53.686;10.094;2023-05-21T13:38:45;7.78;;;4.40;;
19127;SDS011;9696;53.686;10.094;2023-05-21T13:41:15;5.82;;;3.95;;
19127;SDS011;9696;53.686;10.094;2023-05-21T13:43:45;8.93;;;4.20;;
19127;SDS011;9696;53.686;10.094;2023-05-21T13:46:15;12.85;;;4.20;;
19127;SDS011;9696;53.686;10.094;2023-05-21T13:48:46;8.40;;;4.25;;
19127;SDS011;9696;53.686;10.094;2023-05-21T13:51:17;9.38;;;4.30;;
19127;SDS011;9696;53.686;10.094;2023-05-21T13:54:05;11.73;;;4.22;;
19127;SDS011;9696;53.686;10.094;2023-05-21T13:56:35;9.40;;;3.95;;
19127;SDS011;9696;53.686;10.094;2023-05-21T13:59:08;7.57;;;4.28;;
19127;SDS011;9696;53.686;10.094;2023-05-21T14:01:41;8.25;;;4.22;;
19127;SDS011;9696;53.686;10.094;2023-05-21T14:04:12;5.53;;;3.67;;
19127;SDS011;9696;53.686;10.094;2023-05-21T14:06:44;9.43;;;3.58;;
19127;SDS011;9696;53.686;10.094;2023-05-21T14:09:15;8.95;;;3.83;;
19127;SDS011;9696;53.686;10.094;2023-05-21T14:11:46;8.10;;;3.72;;
19127;SDS011;9696;53.686;10.094;2023-05-21T14:14:16;10.68;;;3.90;;
19127;SDS011;9696;53.686;10.094;2023-05-21T14:16:46;8.40;;;3.63;;
19127;SDS011;9696;53.686;10.094;2023-05-21T14:19:18;10.85;;;4.32;;
19127;SDS011;9696;53.686;10.094;2023-05-21T14:21:50;10.15;;;4.07;;
19127;SDS011;9696;53.686;10.094;2023-05-21T14:24:21;8.77;;;3.53;;
19127;SDS011;9696;53.686;10.094;2023-05-21T14:26:52;10.20;;;3.75;;
19127;SDS011;9696;53.686;10.094;2023-05-21T14:29:22;10.73;;;3.78;;
19127;SDS011;9696;53.686;10.094;2023-05-21T14:31:52;6.20;;;3.75;;
19127;SDS011;9696;53.686;10.094;2023-05-21T14:34:23;6.07;;;3.60;;
19127;SDS011;9696;53.686;10.094;2023-05-21T14:36:54;15.73;;;3.65;;
19127;SDS011;9696;53.686;10.094;2023-05-21T14:39:23;5.80;;;4.00;;
19127;SDS011;9696;53.686;10.094;2023-05-21T14:41:52;8.38;;;4.30;;
19127;SDS011;9696;53.686;10.094;2023-05-21T14:44:21;9.10;;;3.92;;
19127;SDS011;9696;53.686;10.094;2023-05-21T14:46:50;11.60;;;4.00;;
19127;SDS011;9696;53.686;10.094;2023-05-21T14:49:19;12.05;;;4.53;;
19127;SDS011;9696;53.686;10.094;2023-05-21T14:51:49;17.00;;;4.10;;
19127;SDS011;9696;53.686;10.094;2023-05-21T14:54:19;11.38;;;3.78;;
19127;SDS011;9696;53.686;10.094;2023-05-21T14:56:48;6.63;;;3.92;;
19127;SDS011;9696;53.686;10.094;2023-05-21T14:59:18;8.15;;;4.07;;
19127;SDS011;9696;53.686;10.094;2023-05-21T15:01:47;10.57;;;4.20;;
19127;SDS011;9696;53.686;10.094;2023-05-21T15:04:16;10.48;;;4.28;;
19127;SDS011;9696;53.686;10.094;2023-05-21T15:06:45;14.20;;;4.00;;
19127;SDS011;9696;53.686;10.094;2023-05-21T15:09:14;12.18;;;4.25;;